sensor_id;sensor_type;location;lat;lon;timestamp;P1;durP1;ratioP1;P2;durP2;ratioP2
52468;SDS011;38381;53.688;10.776;2023-06-24T00:04:34;9.65;;;8.48;;
52468;SDS011;38381;53.688;10.776;2023-06-24T00:09:35;8.65;;;7.82;;
52468;SDS011;38381;53.688;10.776;2023-06-24T00:14:36;12.27;;;8.57;;
52468;SDS011;38381;53.688;10.776;2023-06-24T00:19:37;10.38;;;9.32;;
52468;SDS011;38381;53.688;10.776;2023-06-24T00:24:37;10.23;;;8.57;;
52468;SDS011;38381;53.688;10.776;2023-06-24T00:34:40;9.50;;;8.50;;
52468;SDS011;38381;53.688;10.776;2023-06-24T00:39:43;7.90;;;7.10;;
52468;SDS011;38381;53.688;10.776;2023-06-24T00:44:44;12.85;;;7.97;;
52468;SDS011;38381;53.688;10.776;2023-06-24T00:49:44;8.27;;;6.93;;
52468;SDS011;38381;53.688;10.776;2023-06-24T00:54:45;11.02;;;7.45;;
52468;SDS011;38381;53.688;10.776;2023-06-24T00:59:45;7.73;;;6.93;;
52468;SDS011;38381;53.688;10.776;2023-06-24T01:04:47;11.35;;;6.95;;
52468;SDS011;38381;53.688;10.776;2023-06-24T01:09:48;9.10;;;6.88;;
52468;SDS011;38381;53.688;10.776;2023-06-24T01:14:49;9.43;;;6.68;;
52468;SDS011;38381;53.688;10.776;2023-06-24T01:35:34;8.63;;;7.68;;
52468;SDS011;38381;53.688;10.776;2023-06-24T01:40:40;9.38;;;7.78;;
52468;SDS011;38381;53.688;10.776;2023-06-24T01:45:49;8.45;;;6.97;;
52468;SDS011;38381;53.688;10.776;2023-06-24T01:51:13;13.45;;;8.38;;
52468;SDS011;38381;53.688;10.776;2023-06-24T02:01:15;9.35;;;7.07;;
52468;SDS011;38381;53.688;10.776;2023-06-24T02:06:16;11.68;;;8.43;;
52468;SDS011;38381;53.688;10.776;2023-06-24T02:11:19;9.13;;;7.40;;
52468;SDS011;38381;53.688;10.776;2023-06-24T02:16:22;11.93;;;7.78;;
52468;SDS011;38381;53.688;10.776;2023-06-24T02:21:23;8.80;;;7.03;;
52468;SDS011;38381;53.688;10.776;2023-06-24T02:26:26;10.15;;;7.57;;
52468;SDS011;38381;53.688;10.776;2023-06-24T02:31:26;8.88;;;7.97;;
52468;SDS011;38381;53.688;10.776;2023-06-24T02:36:27;12.50;;;7.75;;
52468;SDS011;38381;53.688;10.776;2023-06-24T02:41:27;9.63;;;7.32;;
52468;SDS011;38381;53.688;10.776;2023-06-24T02:46:28;9.37;;;8.17;;
52468;SDS011;38381;53.688;10.776;2023-06-24T02:51:30;9.02;;;7.13;;
52468;SDS011;38381;53.688;10.776;2023-06-24T02:56:30;9.98;;;8.88;;
52468;SDS011;38381;53.688;10.776;2023-06-24T03:01:32;15.23;;;8.13;;
52468;SDS011;38381;53.688;10.776;2023-06-24T03:06:39;16.75;;;8.38;;
52468;SDS011;38381;53.688;10.776;2023-06-24T03:11:44;9.10;;;7.47;;
52468;SDS011;38381;53.688;10.776;2023-06-24T03:16:44;8.93;;;7.55;;
52468;SDS011;38381;53.688;10.776;2023-06-24T03:21:45;8.47;;;7.53;;
52468;SDS011;38381;53.688;10.776;2023-06-24T03:26:45;9.23;;;7.63;;
52468;SDS011;38381;53.688;10.776;2023-06-24T03:31:46;9.27;;;8.00;;
52468;SDS011;38381;53.688;10.776;2023-06-24T03:36:46;9.60;;;7.97;;
52468;SDS011;38381;53.688;10.776;2023-06-24T03:41:46;12.77;;;7.22;;
52468;SDS011;38381;53.688;10.776;2023-06-24T03:46:47;10.05;;;8.38;;
52468;SDS011;38381;53.688;10.776;2023-06-24T03:51:47;10.07;;;7.40;;
52468;SDS011;38381;53.688;10.776;2023-06-24T03:56:48;8.60;;;7.30;;
52468;SDS011;38381;53.688;10.776;2023-06-24T04:01:48;10.27;;;7.35;;
52468;SDS011;38381;53.688;10.776;2023-06-24T04:06:51;7.70;;;6.90;;
52468;SDS011;38381;53.688;10.776;2023-06-24T04:11:52;8.88;;;7.95;;
52468;SDS011;38381;53.688;10.776;2023-06-24T04:16:52;11.90;;;6.70;;
52468;SDS011;38381;53.688;10.776;2023-06-24T04:21:53;9.00;;;7.38;;
52468;SDS011;38381;53.688;10.776;2023-06-24T04:26:53;11.37;;;6.87;;
52468;SDS011;38381;53.688;10.776;2023-06-24T04:31:53;8.17;;;6.57;;
52468;SDS011;38381;53.688;10.776;2023-06-24T04:36:54;11.43;;;7.05;;
52468;SDS011;38381;53.688;10.776;2023-06-24T04:41:54;7.88;;;6.40;;
52468;SDS011;38381;53.688;10.776;2023-06-24T04:46:55;7.03;;;5.87;;
52468;SDS011;38381;53.688;10.776;2023-06-24T04:51:55;10.13;;;5.40;;
52468;SDS011;38381;53.688;10.776;2023-06-24T04:56:56;7.80;;;5.78;;
52468;SDS011;38381;53.688;10.776;2023-06-24T05:01:57;8.80;;;5.30;;
52468;SDS011;38381;53.688;10.776;2023-06-24T05:06:57;9.20;;;6.00;;
52468;SDS011;38381;53.688;10.776;2023-06-24T05:11:58;6.83;;;5.10;;
52468;SDS011;38381;53.688;10.776;2023-06-24T05:16:58;5.80;;;4.88;;
52468;SDS011;38381;53.688;10.776;2023-06-24T05:21:59;5.10;;;3.97;;
52468;SDS011;38381;53.688;10.776;2023-06-24T05:27:03;7.50;;;4.72;;
52468;SDS011;38381;53.688;10.776;2023-06-24T05:32:05;6.43;;;4.10;;
52468;SDS011;38381;53.688;10.776;2023-06-24T05:37:06;5.55;;;4.97;;
52468;SDS011;38381;53.688;10.776;2023-06-24T05:42:06;6.53;;;4.20;;
52468;SDS011;38381;53.688;10.776;2023-06-24T05:47:07;5.78;;;4.22;;
52468;SDS011;38381;53.688;10.776;2023-06-24T05:52:07;6.43;;;5.10;;
52468;SDS011;38381;53.688;10.776;2023-06-24T05:57:08;8.20;;;4.20;;
52468;SDS011;38381;53.688;10.776;2023-06-24T06:02:09;6.82;;;4.72;;
52468;SDS011;38381;53.688;10.776;2023-06-24T06:07:09;4.60;;;4.07;;
52468;SDS011;38381;53.688;10.776;2023-06-24T06:12:10;4.93;;;4.32;;
52468;SDS011;38381;53.688;10.776;2023-06-24T06:17:11;7.05;;;4.13;;
52468;SDS011;38381;53.688;10.776;2023-06-24T06:22:12;5.72;;;4.43;;
52468;SDS011;38381;53.688;10.776;2023-06-24T06:27:14;7.90;;;4.30;;
52468;SDS011;38381;53.688;10.776;2023-06-24T06:32:14;6.78;;;4.25;;
52468;SDS011;38381;53.688;10.776;2023-06-24T06:37:15;7.22;;;4.47;;
52468;SDS011;38381;53.688;10.776;2023-06-24T06:42:15;4.87;;;3.93;;
52468;SDS011;38381;53.688;10.776;2023-06-24T06:47:16;6.05;;;3.97;;
52468;SDS011;38381;53.688;10.776;2023-06-24T06:52:16;5.13;;;3.33;;
52468;SDS011;38381;53.688;10.776;2023-06-24T06:57:16;6.13;;;3.47;;
52468;SDS011;38381;53.688;10.776;2023-06-24T07:02:17;4.67;;;2.80;;
52468;SDS011;38381;53.688;10.776;2023-06-24T07:07:18;4.63;;;3.28;;
52468;SDS011;38381;53.688;10.776;2023-06-24T07:12:27;4.75;;;2.97;;
52468;SDS011;38381;53.688;10.776;2023-06-24T07:17:27;3.90;;;2.93;;
52468;SDS011;38381;53.688;10.776;2023-06-24T07:22:28;5.60;;;3.87;;
52468;SDS011;38381;53.688;10.776;2023-06-24T07:27:30;5.15;;;3.05;;
52468;SDS011;38381;53.688;10.776;2023-06-24T07:32:31;5.18;;;3.20;;
52468;SDS011;38381;53.688;10.776;2023-06-24T07:37:31;4.65;;;2.70;;
52468;SDS011;38381;53.688;10.776;2023-06-24T07:42:32;7.20;;;3.25;;
52468;SDS011;38381;53.688;10.776;2023-06-24T07:47:32;4.73;;;3.40;;
52468;SDS011;38381;53.688;10.776;2023-06-24T07:52:32;5.45;;;3.20;;
52468;SDS011;38381;53.688;10.776;2023-06-24T07:57:33;6.20;;;3.30;;
52468;SDS011;38381;53.688;10.776;2023-06-24T08:02:33;4.07;;;3.63;;
52468;SDS011;38381;53.688;10.776;2023-06-24T08:07:33;8.60;;;3.43;;
52468;SDS011;38381;53.688;10.776;2023-06-24T08:12:34;4.13;;;3.60;;
52468;SDS011;38381;53.688;10.776;2023-06-24T08:17:34;3.50;;;3.13;;
52468;SDS011;38381;53.688;10.776;2023-06-24T08:22:35;3.67;;;2.75;;
52468;SDS011;38381;53.688;10.776;2023-06-24T08:27:35;6.27;;;3.37;;
52468;SDS011;38381;53.688;10.776;2023-06-24T08:32:37;6.00;;;3.33;;
52468;SDS011;38381;53.688;10.776;2023-06-24T08:37:37;4.28;;;2.92;;
52468;SDS011;38381;53.688;10.776;2023-06-24T08:42:38;5.72;;;3.22;;
52468;SDS011;38381;53.688;10.776;2023-06-24T08:47:38;3.33;;;3.03;;
52468;SDS011;38381;53.688;10.776;2023-06-24T08:52:48;4.25;;;2.60;;
52468;SDS011;38381;53.688;10.776;2023-06-24T08:57:52;5.60;;;2.83;;
52468;SDS011;38381;53.688;10.776;2023-06-24T09:02:52;4.33;;;2.83;;
52468;SDS011;38381;53.688;10.776;2023-06-24T09:07:53;4.07;;;2.93;;
52468;SDS011;38381;53.688;10.776;2023-06-24T09:12:54;7.60;;;3.23;;
52468;SDS011;38381;53.688;10.776;2023-06-24T09:17:55;4.68;;;2.85;;
52468;SDS011;38381;53.688;10.776;2023-06-24T09:22:59;2.95;;;2.65;;
52468;SDS011;38381;53.688;10.776;2023-06-24T09:28:01;3.58;;;2.95;;
52468;SDS011;38381;53.688;10.776;2023-06-24T09:33:01;3.83;;;2.83;;
52468;SDS011;38381;53.688;10.776;2023-06-24T09:38:02;7.10;;;2.63;;
52468;SDS011;38381;53.688;10.776;2023-06-24T09:43:02;3.50;;;2.67;;
52468;SDS011;38381;53.688;10.776;2023-06-24T09:48:03;5.20;;;3.25;;
52468;SDS011;38381;53.688;10.776;2023-06-24T09:53:04;5.25;;;3.05;;
52468;SDS011;38381;53.688;10.776;2023-06-24T09:58:05;7.73;;;3.57;;
52468;SDS011;38381;53.688;10.776;2023-06-24T10:03:06;3.63;;;2.87;;
52468;SDS011;38381;53.688;10.776;2023-06-24T10:08:06;3.72;;;3.15;;
52468;SDS011;38381;53.688;10.776;2023-06-24T10:13:08;5.88;;;2.92;;
52468;SDS011;38381;53.688;10.776;2023-06-24T10:44:44;3.15;;;2.65;;
52468;SDS011;38381;53.688;10.776;2023-06-24T10:49:46;5.28;;;2.50;;
52468;SDS011;38381;53.688;10.776;2023-06-24T10:54:46;3.80;;;2.70;;
52468;SDS011;38381;53.688;10.776;2023-06-24T10:59:48;3.22;;;2.42;;
52468;SDS011;38381;53.688;10.776;2023-06-24T11:04:50;3.05;;;2.35;;
52468;SDS011;38381;53.688;10.776;2023-06-24T11:14:55;3.08;;;2.78;;
52468;SDS011;38381;53.688;10.776;2023-06-24T11:19:57;3.40;;;2.60;;
52468;SDS011;38381;53.688;10.776;2023-06-24T11:24:58;3.92;;;2.95;;
52468;SDS011;38381;53.688;10.776;2023-06-24T11:29:59;5.60;;;3.00;;
52468;SDS011;38381;53.688;10.776;2023-06-24T11:35:03;3.58;;;2.85;;
52468;SDS011;38381;53.688;10.776;2023-06-24T11:40:08;4.90;;;3.05;;
52468;SDS011;38381;53.688;10.776;2023-06-24T11:45:10;3.75;;;3.03;;
52468;SDS011;38381;53.688;10.776;2023-06-24T11:50:11;3.38;;;3.05;;
52468;SDS011;38381;53.688;10.776;2023-06-24T11:55:21;6.13;;;2.77;;
52468;SDS011;38381;53.688;10.776;2023-06-24T12:00:29;5.50;;;3.47;;
52468;SDS011;38381;53.688;10.776;2023-06-24T12:05:32;6.53;;;2.80;;
52468;SDS011;38381;53.688;10.776;2023-06-24T12:10:34;5.80;;;2.97;;
52468;SDS011;38381;53.688;10.776;2023-06-24T12:15:35;4.55;;;3.10;;
52468;SDS011;38381;53.688;10.776;2023-06-24T12:20:36;3.77;;;3.00;;
52468;SDS011;38381;53.688;10.776;2023-06-24T12:25:37;4.53;;;3.37;;
52468;SDS011;38381;53.688;10.776;2023-06-24T12:30:37;3.17;;;2.73;;
52468;SDS011;38381;53.688;10.776;2023-06-24T12:35:38;5.77;;;3.03;;
52468;SDS011;38381;53.688;10.776;2023-06-24T12:40:38;3.83;;;2.80;;
52468;SDS011;38381;53.688;10.776;2023-06-24T12:45:39;5.05;;;3.00;;
52468;SDS011;38381;53.688;10.776;2023-06-24T12:50:43;7.32;;;3.25;;
52468;SDS011;38381;53.688;10.776;2023-06-24T12:55:43;4.87;;;3.10;;
52468;SDS011;38381;53.688;10.776;2023-06-24T13:00:44;5.90;;;3.23;;
52468;SDS011;38381;53.688;10.776;2023-06-24T13:05:44;5.80;;;3.47;;
52468;SDS011;38381;53.688;10.776;2023-06-24T13:10:44;4.80;;;3.33;;
52468;SDS011;38381;53.688;10.776;2023-06-24T13:15:52;4.13;;;2.78;;
52468;SDS011;38381;53.688;10.776;2023-06-24T13:20:52;4.73;;;3.27;;
52468;SDS011;38381;53.688;10.776;2023-06-24T13:25:52;5.43;;;4.00;;
52468;SDS011;38381;53.688;10.776;2023-06-24T13:30:53;5.27;;;3.00;;
52468;SDS011;38381;53.688;10.776;2023-06-24T13:35:54;6.60;;;2.65;;
52468;SDS011;38381;53.688;10.776;2023-06-24T13:40:56;4.28;;;2.90;;
52468;SDS011;38381;53.688;10.776;2023-06-24T13:45:56;3.67;;;3.10;;
52468;SDS011;38381;53.688;10.776;2023-06-24T13:50:57;3.03;;;2.40;;
52468;SDS011;38381;53.688;10.776;2023-06-24T13:55:57;3.47;;;2.67;;
52468;SDS011;38381;53.688;10.776;2023-06-24T14:00:58;3.97;;;3.07;;
52468;SDS011;38381;53.688;10.776;2023-06-24T14:05:58;3.37;;;2.20;;
52468;SDS011;38381;53.688;10.776;2023-06-24T14:11:01;3.60;;;2.45;;
52468;SDS011;38381;53.688;10.776;2023-06-24T14:16:02;4.45;;;3.15;;
52468;SDS011;38381;53.688;10.776;2023-06-24T14:21:04;3.35;;;2.58;;
52468;SDS011;38381;53.688;10.776;2023-06-24T14:31:05;7.67;;;3.17;;
52468;SDS011;38381;53.688;10.776;2023-06-24T14:36:06;10.87;;;3.70;;
52468;SDS011;38381;53.688;10.776;2023-06-24T14:41:06;3.63;;;2.47;;
52468;SDS011;38381;53.688;10.776;2023-06-24T14:46:07;6.17;;;3.70;;
52468;SDS011;38381;53.688;10.776;2023-06-24T14:51:08;3.30;;;2.77;;
52468;SDS011;38381;53.688;10.776;2023-06-24T14:56:08;3.53;;;3.13;;
52468;SDS011;38381;53.688;10.776;2023-06-24T15:01:09;5.63;;;3.00;;
52468;SDS011;38381;53.688;10.776;2023-06-24T15:06:09;4.53;;;3.23;;
52468;SDS011;38381;53.688;10.776;2023-06-24T15:11:09;5.53;;;3.30;;
52468;SDS011;38381;53.688;10.776;2023-06-24T15:16:10;5.17;;;3.57;;
52468;SDS011;38381;53.688;10.776;2023-06-24T15:21:11;4.30;;;2.83;;
52468;SDS011;38381;53.688;10.776;2023-06-24T15:26:12;3.65;;;3.10;;
52468;SDS011;38381;53.688;10.776;2023-06-24T15:31:12;4.40;;;3.07;;
52468;SDS011;38381;53.688;10.776;2023-06-24T15:36:12;4.90;;;3.90;;
52468;SDS011;38381;53.688;10.776;2023-06-24T15:41:13;3.57;;;3.27;;
52468;SDS011;38381;53.688;10.776;2023-06-24T15:46:14;3.77;;;3.07;;
52468;SDS011;38381;53.688;10.776;2023-06-24T15:51:14;3.93;;;3.13;;
52468;SDS011;38381;53.688;10.776;2023-06-24T15:56:15;3.40;;;3.03;;
52468;SDS011;38381;53.688;10.776;2023-06-24T16:01:15;4.47;;;2.80;;
52468;SDS011;38381;53.688;10.776;2023-06-24T16:06:15;4.77;;;2.83;;
52468;SDS011;38381;53.688;10.776;2023-06-24T16:11:16;3.77;;;3.40;;
52468;SDS011;38381;53.688;10.776;2023-06-24T16:16:17;6.03;;;3.17;;
52468;SDS011;38381;53.688;10.776;2023-06-24T16:21:17;4.00;;;2.97;;
52468;SDS011;38381;53.688;10.776;2023-06-24T16:26:18;4.00;;;3.57;;
52468;SDS011;38381;53.688;10.776;2023-06-24T16:31:18;3.97;;;2.67;;
52468;SDS011;38381;53.688;10.776;2023-06-24T16:36:19;5.90;;;3.47;;
52468;SDS011;38381;53.688;10.776;2023-06-24T16:41:19;3.70;;;2.93;;
52468;SDS011;38381;53.688;10.776;2023-06-24T16:46:19;6.40;;;3.00;;
52468;SDS011;38381;53.688;10.776;2023-06-24T16:51:22;4.07;;;2.73;;
52468;SDS011;38381;53.688;10.776;2023-06-24T16:56:23;4.85;;;2.97;;
52468;SDS011;38381;53.688;10.776;2023-06-24T17:01:24;3.13;;;2.83;;
52468;SDS011;38381;53.688;10.776;2023-06-24T17:06:24;4.90;;;3.47;;
52468;SDS011;38381;53.688;10.776;2023-06-24T17:11:24;3.80;;;2.60;;
52468;SDS011;38381;53.688;10.776;2023-06-24T17:16:25;8.47;;;3.03;;
52468;SDS011;38381;53.688;10.776;2023-06-24T17:21:25;4.83;;;3.20;;
52468;SDS011;38381;53.688;10.776;2023-06-24T17:26:26;2.67;;;2.33;;
52468;SDS011;38381;53.688;10.776;2023-06-24T17:31:26;4.27;;;3.10;;
52468;SDS011;38381;53.688;10.776;2023-06-24T17:36:27;3.23;;;2.93;;
52468;SDS011;38381;53.688;10.776;2023-06-24T17:41:28;4.30;;;2.83;;
52468;SDS011;38381;53.688;10.776;2023-06-24T17:46:28;3.63;;;2.83;;
52468;SDS011;38381;53.688;10.776;2023-06-24T17:51:29;4.33;;;3.20;;
52468;SDS011;38381;53.688;10.776;2023-06-24T17:56:30;3.55;;;2.92;;
52468;SDS011;38381;53.688;10.776;2023-06-24T18:01:30;4.33;;;3.27;;
52468;SDS011;38381;53.688;10.776;2023-06-24T18:06:31;2.80;;;2.50;;
52468;SDS011;38381;53.688;10.776;2023-06-24T18:11:31;5.07;;;3.50;;
52468;SDS011;38381;53.688;10.776;2023-06-24T18:16:32;11.27;;;3.93;;
52468;SDS011;38381;53.688;10.776;2023-06-24T18:21:32;3.97;;;3.40;;
52468;SDS011;38381;53.688;10.776;2023-06-24T18:26:32;4.17;;;3.47;;
52468;SDS011;38381;53.688;10.776;2023-06-24T18:31:33;4.23;;;3.17;;
52468;SDS011;38381;53.688;10.776;2023-06-24T18:36:33;5.00;;;2.93;;
52468;SDS011;38381;53.688;10.776;2023-06-24T18:41:34;4.17;;;3.77;;
52468;SDS011;38381;53.688;10.776;2023-06-24T18:46:35;5.47;;;3.43;;
52468;SDS011;38381;53.688;10.776;2023-06-24T18:51:36;4.20;;;3.22;;
52468;SDS011;38381;53.688;10.776;2023-06-24T18:56:36;6.67;;;4.03;;
52468;SDS011;38381;53.688;10.776;2023-06-24T19:01:37;7.20;;;3.60;;
52468;SDS011;38381;53.688;10.776;2023-06-24T19:06:38;4.70;;;3.33;;
52468;SDS011;38381;53.688;10.776;2023-06-24T19:11:39;4.87;;;3.40;;
52468;SDS011;38381;53.688;10.776;2023-06-24T19:16:39;4.90;;;2.93;;
52468;SDS011;38381;53.688;10.776;2023-06-24T19:21:39;2.90;;;2.40;;
52468;SDS011;38381;53.688;10.776;2023-06-24T19:26:40;4.20;;;3.47;;
52468;SDS011;38381;53.688;10.776;2023-06-24T19:31:40;4.13;;;3.03;;
52468;SDS011;38381;53.688;10.776;2023-06-24T19:36:40;6.50;;;4.10;;
52468;SDS011;38381;53.688;10.776;2023-06-24T19:41:41;4.57;;;3.50;;
52468;SDS011;38381;53.688;10.776;2023-06-24T19:46:41;3.90;;;2.87;;
52468;SDS011;38381;53.688;10.776;2023-06-24T19:51:42;5.90;;;3.17;;
52468;SDS011;38381;53.688;10.776;2023-06-24T19:56:42;4.30;;;3.33;;
52468;SDS011;38381;53.688;10.776;2023-06-24T20:01:43;5.03;;;3.70;;
52468;SDS011;38381;53.688;10.776;2023-06-24T20:06:43;4.20;;;3.50;;
52468;SDS011;38381;53.688;10.776;2023-06-24T20:11:43;5.07;;;3.50;;
52468;SDS011;38381;53.688;10.776;2023-06-24T20:16:44;3.67;;;3.10;;
52468;SDS011;38381;53.688;10.776;2023-06-24T20:21:44;3.97;;;3.57;;
52468;SDS011;38381;53.688;10.776;2023-06-24T20:26:45;5.67;;;4.27;;
52468;SDS011;38381;53.688;10.776;2023-06-24T20:31:45;3.77;;;3.03;;
52468;SDS011;38381;53.688;10.776;2023-06-24T20:36:46;6.23;;;3.90;;
52468;SDS011;38381;53.688;10.776;2023-06-24T20:41:47;4.87;;;3.93;;
52468;SDS011;38381;53.688;10.776;2023-06-24T20:46:47;3.72;;;3.17;;
52468;SDS011;38381;53.688;10.776;2023-06-24T20:51:48;7.60;;;5.18;;
52468;SDS011;38381;53.688;10.776;2023-06-24T20:56:49;7.23;;;4.33;;
52468;SDS011;38381;53.688;10.776;2023-06-24T21:01:49;4.28;;;3.85;;
52468;SDS011;38381;53.688;10.776;2023-06-24T21:06:49;5.87;;;5.27;;
52468;SDS011;38381;53.688;10.776;2023-06-24T21:11:51;4.77;;;4.27;;
52468;SDS011;38381;53.688;10.776;2023-06-24T21:16:51;8.13;;;5.53;;
52468;SDS011;38381;53.688;10.776;2023-06-24T21:21:52;6.93;;;6.23;;
52468;SDS011;38381;53.688;10.776;2023-06-24T21:26:52;6.18;;;5.57;;
52468;SDS011;38381;53.688;10.776;2023-06-24T21:31:52;5.43;;;4.35;;
52468;SDS011;38381;53.688;10.776;2023-06-24T21:36:53;5.25;;;3.88;;
52468;SDS011;38381;53.688;10.776;2023-06-24T21:41:53;6.03;;;4.78;;
52468;SDS011;38381;53.688;10.776;2023-06-24T21:46:54;5.30;;;4.80;;
52468;SDS011;38381;53.688;10.776;2023-06-24T21:51:54;8.90;;;4.70;;
52468;SDS011;38381;53.688;10.776;2023-06-24T21:56:55;5.72;;;4.30;;
52468;SDS011;38381;53.688;10.776;2023-06-24T22:01:55;6.80;;;4.90;;
52468;SDS011;38381;53.688;10.776;2023-06-24T22:06:56;7.78;;;4.78;;
52468;SDS011;38381;53.688;10.776;2023-06-24T22:11:56;4.85;;;4.30;;
52468;SDS011;38381;53.688;10.776;2023-06-24T22:16:57;4.17;;;3.77;;
52468;SDS011;38381;53.688;10.776;2023-06-24T22:21:57;3.53;;;3.03;;
52468;SDS011;38381;53.688;10.776;2023-06-24T22:26:57;3.92;;;3.47;;
52468;SDS011;38381;53.688;10.776;2023-06-24T22:31:58;5.97;;;3.40;;
52468;SDS011;38381;53.688;10.776;2023-06-24T22:36:58;6.27;;;4.93;;
52468;SDS011;38381;53.688;10.776;2023-06-24T22:41:59;6.77;;;6.07;;
52468;SDS011;38381;53.688;10.776;2023-06-24T22:46:59;7.80;;;6.85;;
52468;SDS011;38381;53.688;10.776;2023-06-24T22:52:00;7.80;;;7.10;;
52468;SDS011;38381;53.688;10.776;2023-06-24T22:57:00;5.72;;;5.05;;
52468;SDS011;38381;53.688;10.776;2023-06-24T23:02:01;6.73;;;4.57;;
52468;SDS011;38381;53.688;10.776;2023-06-24T23:07:02;8.02;;;4.45;;
52468;SDS011;38381;53.688;10.776;2023-06-24T23:12:02;6.50;;;4.40;;
52468;SDS011;38381;53.688;10.776;2023-06-24T23:17:03;5.63;;;4.40;;
52468;SDS011;38381;53.688;10.776;2023-06-24T23:22:05;5.85;;;4.65;;
52468;SDS011;38381;53.688;10.776;2023-06-24T23:27:06;4.53;;;4.10;;
52468;SDS011;38381;53.688;10.776;2023-06-24T23:32:08;7.38;;;4.50;;
52468;SDS011;38381;53.688;10.776;2023-06-24T23:37:09;5.07;;;4.53;;
52468;SDS011;38381;53.688;10.776;2023-06-24T23:42:11;5.20;;;4.70;;
52468;SDS011;38381;53.688;10.776;2023-06-24T23:47:11;4.85;;;4.22;;
52468;SDS011;38381;53.688;10.776;2023-06-24T23:52:12;6.00;;;4.60;;
52468;SDS011;38381;53.688;10.776;2023-06-24T23:57:12;5.60;;;5.07;;
